createdAt,value
2022-10-09T00:05:36.553Z,100198.00
2022-10-09T00:11:38.588Z,100206.78
2022-10-09T00:17:40.565Z,100210.72
2022-10-09T00:23:42.463Z,100207.44
2022-10-09T00:29:44.394Z,100206.00
2022-10-09T00:35:46.943Z,100209.06
2022-10-09T00:41:48.802Z,100215.69
2022-10-09T00:47:59.866Z,100212.75
2022-10-09T00:54:06.731Z,100206.22
2022-10-09T01:00:13.034Z,100211.63
2022-10-09T01:06:41.702Z,100216.41
2022-10-09T01:13:29.111Z,100211.69
2022-10-09T01:20:26.237Z,100208.22
2022-10-09T01:27:05.660Z,100201.22
2022-10-09T01:33:07.855Z,100203.66
2022-10-09T01:39:14.901Z,100204.50
2022-10-09T01:45:16.913Z,100210.19
2022-10-09T01:51:25.874Z,100208.81
2022-10-09T01:58:01.670Z,100218.06
2022-10-09T02:04:08.582Z,100215.19
2022-10-09T02:10:11.081Z,100219.81
2022-10-09T02:16:39.633Z,100217.72
2022-10-09T02:22:42.028Z,100219.25
2022-10-09T02:28:46.119Z,100222.47
2022-10-09T02:34:48.184Z,100225.28
2022-10-09T02:40:50.175Z,100220.66
2022-10-09T02:46:52.127Z,100219.13
2022-10-09T02:52:54.094Z,100222.75
2022-10-09T02:58:56.688Z,100230.84
2022-10-09T03:04:58.838Z,100232.56
2022-10-09T03:11:00.719Z,100222.47
2022-10-09T03:17:02.615Z,100227.78
2022-10-09T03:23:04.813Z,100216.19
2022-10-09T03:29:06.671Z,100221.78
2022-10-09T03:35:09.233Z,100217.31
2022-10-09T03:41:11.245Z,100233.69
2022-10-09T03:47:13.232Z,100236.03
2022-10-09T03:53:16.404Z,100235.91
2022-10-09T03:59:18.261Z,100231.13
2022-10-09T04:05:20.664Z,100237.84
2022-10-09T04:11:25.581Z,100238.81
2022-10-09T04:17:27.479Z,100234.19
2022-10-09T04:23:29.362Z,100245.75
2022-10-09T04:29:31.319Z,100245.44
2022-10-09T04:35:33.190Z,100252.75
2022-10-09T04:41:38.356Z,100247.13
2022-10-09T04:47:40.748Z,100244.06
2022-10-09T04:53:43.219Z,100244.00
2022-10-09T05:06:16.913Z,100239.44
2022-10-09T05:12:18.792Z,100234.00
2022-10-09T05:18:20.649Z,100248.22
2022-10-09T05:24:22.618Z,100247.97
2022-10-09T05:30:24.491Z,100248.16
2022-10-09T05:36:26.476Z,100247.13
2022-10-09T05:42:28.526Z,100253.44
2022-10-09T05:49:21.224Z,100248.03
2022-10-09T05:55:23.106Z,100240.97
2022-10-09T06:01:28.658Z,100243.81
2022-10-09T06:07:30.936Z,100235.28
2022-10-09T06:13:35.800Z,100243.94
2022-10-09T06:19:37.865Z,100243.06
2022-10-09T06:25:39.842Z,100241.84
2022-10-09T06:31:41.935Z,100249.97
2022-10-09T06:37:43.817Z,100256.25
2022-10-09T06:44:01.910Z,100261.34
2022-10-09T06:50:04.147Z,100265.25
2022-10-09T06:56:06.938Z,100266.59
2022-10-09T07:02:09.386Z,100266.91
2022-10-09T07:08:11.306Z,100283.59
2022-10-09T07:14:16.026Z,100280.72
2022-10-09T07:20:18.028Z,100291.56
2022-10-09T07:26:26.810Z,100301.94
2022-10-09T07:32:28.813Z,100301.75
2022-10-09T07:38:31.112Z,100308.75
2022-10-09T07:44:33.980Z,100306.09
2022-10-09T07:50:36.443Z,100310.63
2022-10-09T07:56:38.778Z,100310.06
2022-10-09T08:02:40.687Z,100304.38
2022-10-09T08:08:43.058Z,100291.03
2022-10-09T08:14:46.960Z,100293.09
2022-10-09T08:21:08.031Z,100303.22
2022-10-09T08:27:10.022Z,100288.72
2022-10-09T08:33:12.027Z,100288.19
2022-10-09T08:39:14.619Z,100296.16
2022-10-09T08:45:17.452Z,100282.97
2022-10-09T08:51:27.047Z,100285.94
2022-10-09T08:57:33.199Z,100277.28
2022-10-09T09:03:53.602Z,100276.66
2022-10-09T09:10:14.057Z,100278.31
2022-10-09T09:23:58.754Z,100262.44
2022-10-09T09:30:13.229Z,100259.53
2022-10-09T09:36:42.423Z,100259.06
2022-10-09T09:42:44.659Z,100248.50
2022-10-09T09:48:54.422Z,100243.56
2022-10-09T09:55:00.224Z,100242.41
2022-10-09T10:07:37.731Z,100227.31
2022-10-09T10:13:49.256Z,100227.31
2022-10-09T10:19:51.570Z,100213.00
2022-10-09T10:25:57.001Z,100211.13
2022-10-09T10:40:06.131Z,100191.34
2022-10-09T10:46:28.285Z,100179.53
2022-10-09T10:53:11.071Z,100174.94
2022-10-09T10:59:28.138Z,100168.56
2022-10-09T11:05:55.646Z,100166.75
2022-10-09T11:12:48.536Z,100163.91
2022-10-09T11:19:12.576Z,100165.19
2022-10-09T11:25:42.642Z,100164.75
2022-10-09T11:31:57.609Z,100147.34
2022-10-09T11:38:08.242Z,100148.34
2022-10-09T11:44:49.350Z,100129.03
2022-10-09T11:51:04.118Z,100105.94
2022-10-09T11:57:06.675Z,100096.84
2022-10-09T12:03:47.034Z,100095.41
2022-10-09T12:09:49.450Z,100074.34
2022-10-09T12:15:51.217Z,100061.31
2022-10-09T12:22:30.194Z,100057.31
2022-10-09T12:28:41.536Z,100045.28
2022-10-09T12:34:50.551Z,100032.38
2022-10-09T12:40:54.596Z,100022.44
2022-10-09T12:47:04.468Z,100018.50
2022-10-09T12:53:17.529Z,100015.03
2022-10-09T12:59:22.882Z,100008.34
2022-10-09T13:05:40.356Z,99984.94
2022-10-09T13:11:52.697Z,99989.19
2022-10-09T13:18:12.899Z,99979.00
2022-10-09T13:24:14.981Z,99982.75
2022-10-09T13:30:17.111Z,99981.03
2022-10-09T13:36:20.126Z,99975.16
2022-10-09T13:42:25.468Z,99966.59
2022-10-09T13:48:29.374Z,99964.03
2022-10-09T13:54:32.164Z,99952.28
2022-10-09T14:00:34.285Z,99952.03
2022-10-09T14:06:37.090Z,99943.94
2022-10-09T14:12:39.426Z,99947.38
2022-10-09T14:18:41.359Z,99929.34
2022-10-09T14:25:00.694Z,99917.34
2022-10-09T14:31:07.493Z,99906.38
2022-10-09T14:37:18.733Z,99900.78
2022-10-09T14:43:25.978Z,99891.53
2022-10-09T14:49:27.938Z,99889.25
2022-10-09T14:55:29.971Z,99870.25
2022-10-09T15:01:35.904Z,99865.84
2022-10-09T15:07:44.504Z,99855.75
2022-10-09T15:13:46.625Z,99854.63
2022-10-09T15:19:48.505Z,99832.31
2022-10-09T15:25:52.238Z,99827.16
2022-10-09T15:31:54.208Z,99819.03
2022-10-09T15:37:58.587Z,99815.22
2022-10-09T15:44:04.267Z,99821.03
2022-10-09T15:50:07.350Z,99815.59
2022-10-09T15:56:12.944Z,99813.97
2022-10-09T16:02:14.859Z,99808.91
2022-10-09T16:08:18.975Z,99799.31
2022-10-09T16:14:20.834Z,99783.34
2022-10-09T16:20:22.994Z,99773.88
2022-10-09T16:26:25.179Z,99767.75
2022-10-09T16:32:27.186Z,99754.06
2022-10-09T16:38:29.149Z,99739.22
2022-10-09T16:44:31.399Z,99741.66
2022-10-09T16:50:42.329Z,99739.88
2022-10-09T16:56:44.297Z,99735.34
2022-10-09T17:02:46.211Z,99730.72
2022-10-09T17:08:48.328Z,99727.97
2022-10-09T17:14:50.568Z,99721.84
2022-10-09T17:20:52.488Z,99723.44
2022-10-09T17:26:55.056Z,99724.25
2022-10-09T17:32:57.022Z,99724.59
2022-10-09T17:38:59.396Z,99711.59
2022-10-09T17:45:02.012Z,99721.47
2022-10-09T17:51:04.625Z,99713.22
2022-10-09T17:57:11.765Z,99720.13
2022-10-09T18:03:14.954Z,99711.78
2022-10-09T18:09:17.196Z,99708.56
2022-10-09T18:15:19.104Z,99703.28
2022-10-09T18:21:21.099Z,99700.38
2022-10-09T18:34:30.151Z,99698.50
2022-10-09T18:40:32.560Z,99690.81
2022-10-09T18:47:02.891Z,99681.97
2022-10-09T18:53:05.705Z,99676.34
2022-10-09T18:59:13.681Z,99678.78
2022-10-09T19:05:15.804Z,99675.75
2022-10-09T19:11:17.707Z,99668.22
2022-10-09T19:17:22.893Z,99657.38
2022-10-09T19:23:35.054Z,99658.50
2022-10-09T19:29:37.237Z,99651.94
2022-10-09T19:42:11.579Z,99645.97
2022-10-09T19:48:13.514Z,99642.63
2022-10-09T19:54:15.394Z,99634.03
2022-10-09T20:06:29.237Z,99621.69
2022-10-09T20:12:31.163Z,99618.06
2022-10-09T20:18:33.838Z,99624.91
2022-10-09T20:24:35.913Z,99618.81
2022-10-09T20:30:48.807Z,99615.19
2022-10-09T20:36:50.767Z,99619.78
2022-10-09T20:42:53.112Z,99611.50
2022-10-09T20:48:55.819Z,99603.72
2022-10-09T20:54:57.677Z,99601.13
2022-10-09T21:01:00.105Z,99591.44
2022-10-09T21:07:02.026Z,99595.13
2022-10-09T21:13:07.330Z,99596.94
2022-10-09T21:19:11.656Z,99589.81
2022-10-09T21:25:13.585Z,99594.13
2022-10-09T21:31:24.035Z,99595.00
2022-10-09T21:37:25.968Z,99582.13
2022-10-09T21:43:28.031Z,99585.78
2022-10-09T21:49:29.988Z,99586.22
2022-10-09T21:55:31.988Z,99586.06
2022-10-09T22:01:34.132Z,99573.59
2022-10-09T22:07:36.212Z,99577.03
2022-10-09T22:13:39.133Z,99573.38
2022-10-09T22:19:41.338Z,99555.28
2022-10-09T22:25:43.385Z,99551.66
2022-10-09T22:31:45.324Z,99546.19
2022-10-09T22:37:47.539Z,99542.66
2022-10-09T22:43:53.156Z,99537.78
2022-10-09T22:49:57.837Z,99530.94
2022-10-09T22:55:59.812Z,99519.72
2022-10-09T23:02:01.793Z,99511.19
2022-10-09T23:08:03.777Z,99511.72
2022-10-09T23:14:07.092Z,99502.34
2022-10-09T23:20:10.392Z,99508.41
2022-10-09T23:26:19.034Z,99493.41
2022-10-09T23:32:20.958Z,99495.41
2022-10-09T23:38:23.497Z,99487.53
2022-10-09T23:44:25.398Z,99482.22
2022-10-09T23:50:27.753Z,99480.56
2022-10-09T23:56:35.428Z,99487.28
